Strona główna
METAR-TAF:

METAR-TAF

Lotnisko :

Port lotniczy Yap

Yap, Mikronezja

Szerokość geograficzna: 09-29N, Długość geograficzna: 138-05E, wysokość: 28 m

Aktualna obserwacja pogody

Raport powstał 46 minut temu, godzina 01:52 UTC
Wiatr 6 kt z kierunków zmiennych
Temperatura 29°C
Wilgotność 89%
Ciśnienie 1012 hPa
Widzialność: 19.3 km
Rozproszone chmury na wysokości 1600 ft, Cumulusy wypiętrznone.
Przerywane chmury na wysokości 30000 ft

METAR: PTYA 040152Z VRB06KT 12SM SCT016TCU BKN300 29/27 A2987 RMK SHRAB38E49 TCU SE AND SW-W SLP115 T02880266

czas: 12:38 (02:38 UTC)

Prognoza

Raport powstał 2 godziny i 31 minut temu, godzina 00:07 UTC
Prognoza ważna od 04 godzina 00 UTC do 04 godzina 24 UTC
Wiatr 8 kt od wschód
Widzialność: 10 km
Rozproszone chmury na wysokości 1600 ft
Rozproszone chmury na wysokości 5000 ft
przelotny w pobliże

TAF: PTYA 040007Z 0400/0424 09008KT P6SM VCSH SCT016 SCT050

Obserwacja i prognoza pogody dla ponad 4000 lotnisk (raport METAR i TAF).

Dostępne stacje oznaczono żółtymi i czerwonymi punktami na mapie.

Najedź kursorem aby zobaczyć nazwę stacji.

Kliknij aby zobaczyć obserwacje i prognozy pogody.

Aby zmienić mapę: kliknij na zielony przycisk z czarnym krzyżykiem, aby powiększyć; na zielony przycisk z myślnikiem, aby pomniejszyć; na zielone strzałki, aby przejść do map sąsiednich.


METAR-TAF: